createdAt,value
2019-02-07T00:00:22.189Z,56.71
2019-02-07T00:05:19.331Z,55.69
2019-02-07T00:10:19.231Z,56.57
2019-02-07T00:15:16.692Z,56.76
2019-02-07T00:20:18.503Z,56.47
2019-02-07T00:25:15.463Z,56.94
2019-02-07T00:30:20.349Z,57.29
2019-02-07T00:35:17.269Z,56.67
2019-02-07T00:40:20.591Z,56.54
2019-02-07T00:45:18.996Z,56.86
2019-02-07T00:50:17.487Z,57.49
2019-02-07T00:55:16.503Z,57.17
2019-02-07T01:00:25.949Z,56.60
2019-02-07T01:05:22.951Z,55.83
2019-02-07T01:10:28.756Z,56.21
2019-02-07T01:15:27.278Z,55.58
2019-02-07T01:20:24.394Z,56.68
2019-02-07T01:25:23.197Z,57.02
2019-02-07T01:30:28.504Z,55.99
2019-02-07T01:35:25.539Z,56.05
2019-02-07T01:40:22.929Z,57.13
2019-02-07T01:45:23.554Z,55.94
2019-02-07T01:50:23.796Z,55.71
2019-02-07T01:55:21.117Z,57.26
2019-02-07T02:00:19.364Z,57.26
2019-02-07T02:05:18.377Z,56.63
2019-02-07T02:10:23.100Z,56.99
2019-02-07T02:15:24.505Z,57.54
2019-02-07T02:20:23.057Z,57.17
2019-02-07T02:25:20.317Z,56.92
2019-02-07T02:30:24.547Z,57.15
2019-02-07T02:35:21.465Z,56.11
2019-02-07T02:40:18.510Z,57.35
2019-02-07T02:45:21.079Z,56.83
2019-02-07T02:50:19.430Z,57.01
2019-02-07T02:55:18.134Z,56.32
2019-02-07T03:00:20.397Z,55.50
2019-02-07T03:05:20.069Z,56.27
2019-02-07T03:10:24.838Z,56.50
2019-02-07T03:15:21.754Z,56.24
2019-02-07T03:20:23.590Z,55.69
2019-02-07T03:25:31.496Z,55.64
2019-02-07T03:30:35.983Z,56.58
2019-02-07T03:35:44.860Z,55.91
2019-02-07T03:40:55.313Z,56.28
2019-02-07T03:46:03.137Z,56.05
2019-02-07T03:50:59.769Z,56.39
2019-02-07T03:56:03.263Z,56.18
2019-02-07T04:01:11.131Z,56.44
2019-02-07T04:06:09.953Z,56.46
2019-02-07T04:11:11.945Z,56.98
2019-02-07T04:16:15.452Z,57.86
2019-02-07T04:21:31.353Z,57.18
2019-02-07T04:26:39.044Z,56.54
2019-02-07T04:31:37.930Z,56.06
2019-02-07T04:36:48.594Z,55.78
2019-02-07T04:41:51.659Z,55.74
2019-02-07T04:46:48.699Z,55.62
2019-02-07T04:52:03.625Z,56.01
2019-02-07T04:57:04.901Z,54.88
2019-02-07T05:02:20.342Z,55.69
2019-02-07T05:07:19.758Z,55.75
2019-02-07T05:12:30.406Z,55.58
2019-02-07T05:17:41.293Z,55.99
2019-02-07T05:22:41.161Z,56.37
2019-02-07T05:27:56.993Z,55.77
2019-02-07T05:33:08.501Z,55.74
2019-02-07T05:38:16.773Z,55.99
2019-02-07T05:43:15.504Z,55.84
2019-02-07T05:48:14.209Z,55.52
2019-02-07T05:53:13.637Z,55.37
2019-02-07T05:58:16.556Z,55.47
2019-02-07T06:03:15.257Z,55.04
2019-02-07T06:08:29.135Z,55.50
2019-02-07T06:13:27.873Z,55.33
2019-02-07T06:18:43.495Z,54.92
2019-02-07T06:23:57.779Z,55.33
2019-02-07T06:28:59.290Z,55.72
2019-02-07T06:34:11.020Z,54.62
2019-02-07T06:39:14.322Z,53.39
2019-02-07T06:44:26.308Z,54.42
2019-02-07T06:49:25.016Z,53.54
2019-02-07T06:54:26.384Z,53.93
2019-02-07T06:59:41.841Z,53.99
2019-02-07T07:04:41.446Z,50.26
2019-02-07T07:09:56.551Z,54.25
2019-02-07T07:14:58.248Z,51.85
2019-02-07T07:20:05.982Z,51.84
2019-02-07T07:25:18.840Z,50.10
2019-02-07T07:30:17.645Z,48.72
2019-02-07T07:35:16.566Z,47.79
2019-02-07T07:40:15.400Z,45.64
2019-02-07T07:45:18.282Z,43.82
2019-02-07T07:50:33.382Z,40.05
2019-02-07T07:55:32.095Z,36.64
2019-02-07T08:00:30.873Z,36.86
2019-02-07T08:05:46.589Z,35.83
2019-02-07T08:10:48.115Z,29.55
2019-02-07T08:15:54.584Z,27.42
2019-02-07T08:21:09.751Z,26.36
2019-02-07T08:26:25.059Z,23.12
2019-02-07T08:31:26.560Z,22.28
2019-02-07T08:36:23.439Z,21.06
2019-02-07T08:41:25.124Z,18.74
2019-02-07T08:46:40.317Z,20.13
2019-02-07T08:51:56.010Z,19.03
2019-02-07T08:57:11.164Z,18.18
2019-02-07T09:02:26.422Z,18.00
2019-02-07T09:07:34.298Z,18.58
2019-02-07T09:12:33.005Z,18.58
2019-02-07T09:17:31.720Z,18.36
2019-02-07T09:22:46.814Z,18.19
2019-02-07T09:27:45.563Z,19.66
2019-02-07T09:32:49.965Z,19.74
2019-02-07T09:38:00.469Z,18.52
2019-02-07T09:43:04.805Z,18.66
2019-02-07T09:48:21.087Z,18.69
2019-02-07T09:53:10.311Z,19.94
2019-02-07T09:58:07.143Z,19.16
2019-02-07T10:03:18.757Z,18.67
2019-02-07T10:08:20.627Z,19.44
2019-02-07T10:13:22.134Z,19.36
2019-02-07T10:18:32.559Z,21.09
2019-02-07T10:23:22.453Z,20.37
2019-02-07T10:28:19.670Z,20.88
2019-02-07T10:33:27.732Z,21.18
2019-02-07T10:38:27.332Z,21.42
2019-02-07T10:43:35.109Z,22.10
2019-02-07T10:48:44.535Z,23.35
2019-02-07T10:53:55.064Z,23.61
2019-02-07T10:59:04.146Z,23.38
2019-02-07T11:04:17.924Z,22.69
2019-02-07T11:09:14.754Z,23.57
2019-02-07T11:14:25.444Z,25.22
2019-02-07T11:19:35.632Z,25.80
2019-02-07T11:24:42.160Z,26.17
2019-02-07T11:29:40.900Z,26.17
2019-02-07T11:34:55.991Z,26.80
2019-02-07T11:40:06.861Z,26.86
2019-02-07T11:45:29.050Z,26.94
2019-02-07T11:50:44.675Z,28.25
2019-02-07T11:56:00.167Z,29.11
2019-02-07T12:01:15.585Z,29.07
2019-02-07T12:06:20.103Z,29.79
2019-02-07T12:11:22.693Z,29.80
2019-02-07T12:16:39.877Z,29.74
2019-02-07T12:21:36.710Z,27.90
2019-02-07T12:26:38.055Z,28.66
2019-02-07T12:31:34.862Z,28.85
2019-02-07T12:36:34.460Z,28.75
2019-02-07T12:41:50.214Z,28.35
2019-02-07T12:47:06.782Z,28.23
2019-02-07T12:52:06.493Z,28.78
2019-02-07T12:57:05.523Z,29.01
2019-02-07T13:02:16.790Z,28.46
2019-02-07T13:07:19.733Z,28.76
2019-02-07T13:12:28.874Z,28.19
2019-02-07T13:17:44.069Z,28.10
2019-02-07T13:22:56.346Z,28.37
2019-02-07T13:27:58.042Z,28.72
2019-02-07T13:33:04.510Z,28.07
2019-02-07T13:38:03.262Z,28.39
2019-02-07T13:43:09.887Z,29.24
2019-02-07T13:48:17.458Z,28.89
2019-02-07T13:53:14.314Z,28.47
2019-02-07T13:58:17.482Z,28.80
2019-02-07T14:03:17.012Z,28.73
2019-02-07T14:08:15.791Z,28.44
2019-02-07T14:13:15.415Z,29.76
2019-02-07T14:18:17.779Z,31.28
2019-02-07T14:23:19.782Z,31.66
2019-02-07T14:28:33.707Z,32.95
2019-02-07T14:33:49.354Z,32.77
2019-02-07T14:38:52.001Z,34.66
2019-02-07T14:43:51.709Z,34.48
2019-02-07T14:48:48.642Z,35.47
2019-02-07T14:53:45.597Z,36.43
2019-02-07T14:58:42.525Z,37.07
2019-02-07T15:03:39.661Z,38.58
2019-02-07T15:08:36.567Z,39.91
2019-02-07T15:13:33.562Z,39.83
2019-02-07T15:18:30.965Z,40.27
2019-02-07T15:23:28.011Z,40.09
2019-02-07T15:28:24.912Z,41.20
2019-02-07T15:33:21.899Z,41.73
2019-02-07T15:38:18.905Z,42.11
2019-02-07T15:43:16.051Z,43.03
2019-02-07T15:48:14.020Z,42.82
2019-02-07T15:53:11.931Z,41.95
2019-02-07T15:58:09.064Z,44.29
2019-02-07T16:03:07.804Z,45.33
2019-02-07T16:08:05.018Z,45.31
2019-02-07T16:13:01.965Z,45.71
2019-02-07T16:17:58.981Z,45.98
2019-02-07T16:22:58.911Z,45.97
2019-02-07T16:27:55.227Z,46.21
2019-02-07T16:32:52.284Z,45.93
2019-02-07T16:37:49.879Z,45.74
2019-02-07T16:42:46.874Z,47.36
2019-02-07T16:47:43.770Z,47.72
2019-02-07T16:52:41.621Z,47.24
2019-02-07T16:57:38.872Z,49.05
2019-02-07T17:02:35.894Z,49.27
2019-02-07T17:07:32.852Z,50.02
2019-02-07T17:12:29.981Z,49.97
2019-02-07T17:17:26.919Z,50.40
2019-02-07T17:22:24.270Z,50.83
2019-02-07T17:27:21.335Z,49.56
2019-02-07T17:32:18.669Z,49.78
2019-02-07T17:37:15.644Z,49.08
2019-02-07T17:42:13.159Z,50.52
2019-02-07T17:47:10.553Z,49.80
2019-02-07T17:52:07.905Z,50.78
2019-02-07T17:57:05.800Z,50.57
2019-02-07T18:02:05.355Z,49.92
2019-02-07T18:07:02.437Z,49.96
2019-02-07T18:11:59.400Z,50.09
2019-02-07T18:16:56.318Z,50.55
2019-02-07T18:21:53.360Z,50.22
2019-02-07T18:26:50.281Z,50.27
2019-02-07T18:31:47.232Z,49.99
2019-02-07T18:36:44.193Z,50.52
2019-02-07T18:41:41.166Z,50.51
2019-02-07T18:46:38.474Z,49.57
2019-02-07T18:51:45.148Z,50.00
2019-02-07T18:56:34.675Z,50.68
2019-02-07T19:01:31.814Z,50.13
2019-02-07T19:06:28.767Z,49.24
2019-02-07T19:11:25.710Z,49.99
2019-02-07T19:16:22.630Z,50.25
2019-02-07T19:21:19.825Z,49.27
2019-02-07T19:26:16.916Z,49.25
2019-02-07T19:31:14.050Z,48.30
2019-02-07T19:36:11.367Z,48.98
2019-02-07T19:41:08.315Z,48.83
2019-02-07T19:46:05.249Z,48.33
2019-02-07T19:51:02.235Z,48.50
2019-02-07T19:55:59.162Z,48.75
2019-02-07T20:00:56.214Z,48.47
2019-02-07T20:05:54.029Z,48.34
2019-02-07T20:10:50.997Z,49.14
2019-02-07T20:15:48.027Z,48.59
2019-02-07T20:20:45.113Z,48.55
2019-02-07T20:25:42.034Z,48.10
2019-02-07T20:30:42.399Z,47.81
2019-02-07T20:35:39.439Z,47.85
2019-02-07T20:40:36.372Z,47.88
2019-02-07T20:45:33.690Z,48.13
2019-02-07T20:50:30.649Z,48.79
2019-02-07T20:55:27.664Z,49.13
2019-02-07T21:00:34.862Z,49.50
2019-02-07T21:05:32.597Z,50.04
2019-02-07T21:10:33.275Z,49.26
2019-02-07T21:15:30.397Z,49.01
2019-02-07T21:20:29.847Z,49.56
2019-02-07T21:25:41.165Z,50.18
2019-02-07T21:30:38.386Z,50.28
2019-02-07T21:35:35.317Z,50.23
2019-02-07T21:40:32.233Z,50.69
2019-02-07T21:45:29.545Z,50.59
2019-02-07T21:50:29.166Z,50.21
2019-02-07T21:55:34.929Z,50.40
2019-02-07T22:00:44.880Z,49.52
2019-02-07T22:05:42.409Z,49.24
2019-02-07T22:10:40.029Z,48.19
2019-02-07T22:15:37.225Z,48.73
2019-02-07T22:20:34.195Z,48.43
2019-02-07T22:25:31.498Z,48.18
2019-02-07T22:30:34.862Z,48.13
2019-02-07T22:35:31.859Z,47.91
2019-02-07T22:40:29.262Z,46.99
2019-02-07T22:45:26.402Z,47.16
2019-02-07T22:50:30.205Z,46.54
2019-02-07T22:55:27.209Z,45.94
2019-02-07T23:00:35.510Z,45.85
2019-02-07T23:05:32.418Z,45.76
2019-02-07T23:10:29.390Z,45.94
2019-02-07T23:15:28.226Z,45.12
2019-02-07T23:20:25.165Z,44.23
2019-02-07T23:25:22.151Z,44.67
2019-02-07T23:30:19.398Z,44.27
2019-02-07T23:35:16.300Z,44.13
2019-02-07T23:40:17.082Z,44.17
2019-02-07T23:45:17.290Z,43.88
2019-02-07T23:50:14.429Z,43.26
2019-02-07T23:55:13.236Z,41.88
